Time;durP1;ratioP1;P1;durP2;ratioP2;P2;SDS_P1;SDS_P2;PMS_P1;PMS_P2;Temp;Humidity;BMP_temperature;BMP_pressure;BME280_temperature;BME280_humidity;BME280_pressure;Samples;Min_cycle;Max_cycle;Signal;HPM_P1;HPM_P2
2024/03/28 00:01:01;;;;;;;1.40;1.30;;;;;;;8.57;91.19;98514.19;5056235;28;20028;-83
2024/03/28 00:03:27;;;;;;;1.42;1.02;;;;;;;8.53;91.03;98513.59;5054968;28;20050;-83
2024/03/28 00:05:54;;;;;;;1.25;1.15;;;;;;;8.54;90.88;98515.22;5074017;28;20343;-83
2024/03/28 00:08:20;;;;;;;1.25;1.15;;;;;;;8.54;91.22;98520.44;5074137;28;20063;-83
2024/03/28 00:10:49;;;;;;;1.15;1.15;;;;;;;8.55;91.44;98508.22;5068867;28;20029;-83
2024/03/28 00:13:15;;;;;;;1.30;1.30;;;;;;;8.53;91.84;98504.91;5061552;28;20047;-83
2024/03/28 00:15:40;;;;;;;1.63;1.50;;;;;;;8.50;91.66;98502.53;5069397;28;20127;-83
2024/03/28 00:18:06;;;;;;;1.30;1.20;;;;;;;8.47;91.49;98502.72;5069225;28;20300;-83
2024/03/28 00:20:31;;;;;;;1.30;1.20;;;;;;;8.41;91.17;98496.94;5073153;28;20032;-83
2024/03/28 00:22:56;;;;;;;1.63;1.52;;;;;;;8.39;91.20;98491.00;5075762;28;20237;-83
2024/03/28 00:25:22;;;;;;;1.23;1.10;;;;;;;8.38;91.28;98491.94;5074529;28;20228;-83
2024/03/28 00:27:47;;;;;;;1.10;0.82;;;;;;;8.33;91.41;98487.97;5066424;28;20035;-83
2024/03/28 00:30:13;;;;;;;0.85;0.85;;;;;;;8.29;90.65;98489.97;5061666;28;20035;-83
2024/03/28 00:32:38;;;;;;;2.60;1.38;;;;;;;8.29;90.89;98478.72;5069189;28;20281;-83
2024/03/28 00:35:04;;;;;;;1.20;1.08;;;;;;;8.26;90.93;98470.16;5048690;28;20067;-83
2024/03/28 00:37:29;;;;;;;0.90;0.90;;;;;;;8.26;91.12;98475.38;5068022;28;20039;-83
2024/03/28 00:39:54;;;;;;;1.00;1.00;;;;;;;8.24;91.05;98474.66;5064406;28;20028;-83
2024/03/28 00:42:20;;;;;;;1.10;1.00;;;;;;;8.20;91.04;98470.56;5059973;28;20034;-83
2024/03/28 00:44:45;;;;;;;1.30;1.20;;;;;;;8.16;90.92;98463.91;5038499;28;20032;-83
2024/03/28 00:47:10;;;;;;;1.30;1.20;;;;;;;8.11;91.09;98465.97;5055707;28;20107;-83
2024/03/28 00:49:36;;;;;;;1.00;0.90;;;;;;;8.11;91.02;98465.16;5074714;28;20082;-83
2024/03/28 00:52:01;;;;;;;0.95;0.95;;;;;;;8.08;91.25;98455.78;5059900;28;20045;-83
2024/03/28 00:54:26;;;;;;;0.93;0.93;;;;;;;8.08;91.39;98455.78;5055523;28;20040;-83
2024/03/28 00:56:51;;;;;;;1.17;1.08;;;;;;;8.06;91.56;98439.44;5055697;28;20068;-83
2024/03/28 00:59:17;;;;;;;1.65;1.20;;;;;;;8.06;91.66;98440.25;5070036;28;20047;-83
2024/03/28 01:01:42;;;;;;;1.00;1.00;;;;;;;8.06;91.59;98429.81;5061182;28;20028;-83
2024/03/28 01:04:07;;;;;;;2.08;1.50;;;;;;;8.04;91.63;98428.25;5069624;28;20130;-83
2024/03/28 01:06:33;;;;;;;1.73;1.05;;;;;;;8.04;91.78;98430.84;5057898;28;20092;-83
2024/03/28 01:08:58;;;;;;;1.27;1.20;;;;;;;8.03;92.02;98429.19;5041074;28;20051;-83
2024/03/28 01:11:23;;;;;;;1.20;1.08;;;;;;;8.01;92.45;98428.47;5043579;28;20039;-83
2024/03/28 01:13:49;;;;;;;1.30;1.20;;;;;;;7.98;91.99;98420.84;5055309;28;20044;-83
2024/03/28 01:16:14;;;;;;;3.13;1.38;;;;;;;7.95;92.13;98416.69;5038073;28;20012;-83
2024/03/28 01:18:39;;;;;;;1.50;1.40;;;;;;;7.90;91.99;98408.34;5054580;28;20265;-83
2024/03/28 01:21:05;;;;;;;1.17;1.17;;;;;;;7.91;92.59;98409.19;5069436;28;20370;-83
2024/03/28 01:23:30;;;;;;;1.70;1.20;;;;;;;7.91;92.73;98396.97;5055610;28;20304;-83
2024/03/28 01:26:01;;;;;;;1.63;1.52;;;;;;;7.90;92.82;98397.09;5072412;28;20261;-83
2024/03/28 01:28:26;;;;;;;1.88;1.40;;;;;;;7.88;92.96;98392.81;5059848;28;20036;-83
2024/03/28 01:31:01;;;;;;;1.50;1.40;;;;;;;7.90;93.16;98394.50;5061298;28;20121;-83
2024/03/28 01:33:26;;;;;;;1.40;1.30;;;;;;;7.91;93.15;98396.16;5077054;28;20040;-83
2024/03/28 01:35:51;;;;;;;1.30;1.20;;;;;;;7.90;93.17;98399.72;5068069;28;20125;-83
2024/03/28 01:38:17;;;;;;;1.75;1.52;;;;;;;7.84;93.23;98383.56;5060955;28;20032;-83
2024/03/28 01:40:42;;;;;;;1.75;1.65;;;;;;;7.83;93.36;98381.03;5070860;28;20047;-83
2024/03/28 01:43:08;;;;;;;1.50;1.40;;;;;;;7.82;93.61;98369.78;5069841;28;20100;-83
2024/03/28 01:45:33;;;;;;;1.30;1.20;;;;;;;7.79;93.78;98370.00;5065787;28;20287;-83
2024/03/28 01:47:59;;;;;;;1.60;1.50;;;;;;;7.78;93.44;98370.09;5065866;28;20033;-83
2024/03/28 01:50:25;;;;;;;1.55;1.45;;;;;;;7.76;93.71;98370.19;5059266;28;20040;-83
2024/03/28 01:52:51;;;;;;;1.55;1.45;;;;;;;7.73;93.74;98346.13;5059503;28;20399;-83
2024/03/28 01:55:16;;;;;;;1.80;1.70;;;;;;;7.71;93.82;98354.03;5061274;28;20215;-83
2024/03/28 01:57:42;;;;;;;1.70;1.35;;;;;;;7.69;93.96;98348.09;5078896;28;20039;-83
2024/03/28 02:00:09;;;;;;;1.77;1.67;;;;;;;7.67;93.97;98344.78;5077908;28;20238;-83
2024/03/28 02:02:35;;;;;;;2.03;1.80;;;;;;;7.63;93.88;98340.72;5058897;28;20220;-83
2024/03/28 02:05:01;;;;;;;1.60;1.50;;;;;;;7.64;94.03;98342.38;5059508;28;20195;-83
2024/03/28 02:07:26;;;;;;;1.27;1.20;;;;;;;7.61;93.65;98345.22;5047559;28;20090;-83
2024/03/28 02:09:52;;;;;;;1.40;1.30;;;;;;;7.60;94.08;98333.94;5077969;28;20142;-83
2024/03/28 02:12:18;;;;;;;1.48;1.38;;;;;;;7.59;94.13;98342.72;5053024;28;20064;-83
2024/03/28 02:14:43;;;;;;;1.50;1.40;;;;;;;7.58;94.06;98328.00;5058964;28;20040;-83
2024/03/28 02:17:09;;;;;;;2.75;1.30;;;;;;;7.59;94.29;98329.69;5070861;28;20032;-83
2024/03/28 02:19:35;;;;;;;1.60;1.50;;;;;;;7.58;94.53;98333.22;5077707;28;20063;-83
2024/03/28 02:22:01;;;;;;;1.90;1.80;;;;;;;7.56;94.52;98331.66;5064989;28;20074;-83
2024/03/28 02:24:29;;;;;;;1.77;1.40;;;;;;;7.55;94.31;98323.03;5060417;28;20025;-83
2024/03/28 02:26:55;;;;;;;1.45;1.35;;;;;;;7.57;94.58;98328.13;5065712;28;20090;-84
2024/03/28 02:29:20;;;;;;;1.63;1.52;;;;;;;7.56;94.55;98331.66;5062429;28;20047;-83
2024/03/28 02:31:45;;;;;;;1.77;1.67;;;;;;;7.53;94.73;98324.91;5060974;28;20053;-83
2024/03/28 02:34:11;;;;;;;1.65;1.55;;;;;;;7.55;95.15;98322.16;5066745;28;20263;-83
2024/03/28 02:36:36;;;;;;;1.50;1.40;;;;;;;7.55;95.45;98311.75;5068752;28;20048;-83
2024/03/28 02:39:02;;;;;;;1.73;1.63;;;;;;;7.55;95.67;98312.59;5075714;28;20046;-83
2024/03/28 02:41:27;;;;;;;3.58;1.75;;;;;;;7.53;95.54;98304.06;5069557;28;20032;-83
2024/03/28 02:43:53;;;;;;;1.67;1.58;;;;;;;7.55;95.32;98302.19;5078070;28;20255;-83
2024/03/28 02:46:19;;;;;;;1.60;1.50;;;;;;;7.56;95.43;98292.59;5077893;28;20111;-83
2024/03/28 02:48:44;;;;;;;1.60;1.50;;;;;;;7.57;95.68;98291.66;5061754;28;20494;-83
2024/03/28 02:51:09;;;;;;;1.50;1.40;;;;;;;7.65;95.77;98294.56;5058160;28;20544;-84
2024/03/28 02:53:35;;;;;;;2.10;1.35;;;;;;;7.69;95.24;98283.84;5072311;28;20032;-83
2024/03/28 02:56:00;;;;;;;1.92;1.65;;;;;;;7.72;95.02;98280.16;5059489;28;20264;-84
2024/03/28 02:58:25;;;;;;;2.00;1.73;;;;;;;7.71;95.12;98270.69;5062520;28;20032;-83
2024/03/28 03:00:51;;;;;;;1.73;1.52;;;;;;;7.75;94.77;98264.34;5058111;28;20086;-83
2024/03/28 03:03:16;;;;;;;2.00;1.90;;;;;;;7.75;94.86;98260.88;5058757;28;20039;-83
2024/03/28 03:05:42;;;;;;;1.70;1.60;;;;;;;7.80;94.83;98243.97;5069870;28;20032;-84
2024/03/28 03:08:07;;;;;;;1.88;1.73;;;;;;;7.79;95.30;98239.72;5069271;28;20052;-84
2024/03/28 03:10:32;;;;;;;1.60;1.50;;;;;;;7.75;94.89;98232.22;5075347;28;20047;-84
2024/03/28 03:12:58;;;;;;;1.63;1.52;;;;;;;7.82;94.72;98231.69;5059346;28;20040;-84
2024/03/28 03:15:24;;;;;;;4.13;1.60;;;;;;;7.88;95.47;98241.66;5040210;28;20042;-84
2024/03/28 03:17:50;;;;;;;1.98;1.77;;;;;;;7.87;95.06;98233.97;5039113;28;20383;-84
2024/03/28 03:20:15;;;;;;;2.38;1.60;;;;;;;7.87;95.42;98226.16;5038505;28;20032;-85
2024/03/28 03:22:48;;;;;;;1.75;1.65;;;;;;;7.85;95.73;98218.44;5064153;28;20036;-84
2024/03/28 03:25:24;;;;;;;2.58;2.05;;;;;;;7.84;96.17;98221.13;5055488;28;20028;-84
2024/03/28 03:36:05;;;;;;;2.17;1.98;;;;;;;7.65;97.03;98217.25;5076835;28;20039;-84
2024/03/28 03:38:31;;;;;;;3.22;2.30;;;;;;;7.50;97.52;98216.53;5059704;28;20139;-84
2024/03/28 03:40:59;;;;;;;2.08;1.88;;;;;;;7.47;97.93;98216.75;5074773;28;20036;-84
2024/03/28 03:43:24;;;;;;;2.40;2.00;;;;;;;7.47;98.14;98215.94;5052631;28;20028;-82
2024/03/28 03:45:50;;;;;;;2.28;2.00;;;;;;;7.46;98.24;98219.50;5060280;28;20100;-82
2024/03/28 03:48:15;;;;;;;1.85;1.75;;;;;;;7.44;98.50;98216.97;5057189;28;20029;-82
2024/03/28 03:50:41;;;;;;;2.20;2.10;;;;;;;7.41;98.35;98219.78;5073606;28;20063;-82
2024/03/28 03:53:06;;;;;;;1.77;1.67;;;;;;;7.44;98.44;98222.19;5077757;28;20241;-82
2024/03/28 03:55:32;;;;;;;4.13;2.13;;;;;;;7.39;98.60;98226.88;5056756;28;20036;-82
2024/03/28 03:57:57;;;;;;;2.08;1.90;;;;;;;7.38;98.55;98220.00;5065839;28;20051;-82
2024/03/28 04:00:23;;;;;;;2.00;1.88;;;;;;;7.40;98.58;98215.50;5060680;28;20025;-82
2024/03/28 04:02:48;;;;;;;1.98;1.88;;;;;;;7.37;98.52;98205.31;5076680;28;20024;-82
2024/03/28 04:05:13;;;;;;;1.70;1.60;;;;;;;7.38;98.54;98208.75;5067950;28;20274;-82
2024/03/28 04:07:39;;;;;;;2.05;1.95;;;;;;;7.39;98.62;98210.44;5070028;28;20390;-82
2024/03/28 04:10:05;;;;;;;1.92;1.80;;;;;;;7.39;98.23;98202.63;5057633;28;20032;-82
2024/03/28 04:12:30;;;;;;;2.15;2.00;;;;;;;7.38;98.73;98206.97;5057521;28;20044;-82
2024/03/28 04:14:55;;;;;;;2.00;1.90;;;;;;;7.46;98.29;98194.28;5058875;28;20048;-82
2024/03/28 04:17:21;;;;;;;1.85;1.73;;;;;;;7.55;98.55;98179.78;5058237;28;20139;-81
2024/03/28 04:19:46;;;;;;;2.22;1.92;;;;;;;7.55;97.85;98177.16;5067381;28;20037;-82
2024/03/28 04:22:12;;;;;;;1.65;1.55;;;;;;;7.58;98.11;98176.09;5076765;28;20042;-82
2024/03/28 04:24:37;;;;;;;3.10;1.75;;;;;;;7.50;98.13;98174.88;5077764;28;20031;-82
2024/03/28 04:27:04;;;;;;;2.22;2.03;;;;;;;7.48;98.28;98173.34;5076507;28;20056;-82
2024/03/28 04:29:29;;;;;;;1.80;1.60;;;;;;;7.45;98.44;98169.16;5076974;28;20044;-82
2024/03/28 04:31:54;;;;;;;2.08;1.98;;;;;;;7.44;98.18;98171.88;5061686;28;20363;-82
2024/03/28 04:34:20;;;;;;;1.80;1.67;;;;;;;7.45;98.50;98170.94;5039306;28;20021;-81
2024/03/28 04:36:45;;;;;;;2.40;1.80;;;;;;;7.47;98.41;98166.44;5069453;28;20068;-82
2024/03/28 04:39:13;;;;;;;2.03;1.77;;;;;;;7.44;98.62;98170.13;5059616;28;20090;-82
2024/03/28 04:41:38;;;;;;;2.13;1.80;;;;;;;7.43;98.91;98168.44;5051963;28;20093;-83
2024/03/28 04:44:04;;;;;;;2.15;1.95;;;;;;;7.47;98.94;98163.84;5073250;28;20056;-82
2024/03/28 04:46:29;;;;;;;1.95;1.85;;;;;;;7.45;99.18;98168.34;5065392;28;20036;-82
2024/03/28 04:48:54;;;;;;;1.73;1.63;;;;;;;7.44;98.98;98157.09;5076915;28;20040;-82
2024/03/28 04:51:19;;;;;;;1.73;1.63;;;;;;;7.44;99.20;98164.06;5076047;28;20200;-84
2024/03/28 04:53:45;;;;;;;1.80;1.70;;;;;;;7.43;99.31;98155.41;5061736;28;20016;-83
2024/03/28 04:56:10;;;;;;;4.20;1.70;;;;;;;7.41;99.24;98161.69;5059264;28;20032;-82
2024/03/28 04:58:35;;;;;;;1.70;1.60;;;;;;;7.46;99.13;98146.56;5069428;28;20093;-82
2024/03/28 05:01:01;;;;;;;1.83;1.65;;;;;;;7.43;99.31;98152.81;5064136;28;20250;-83
2024/03/28 05:03:26;;;;;;;2.13;1.70;;;;;;;7.45;99.42;98137.91;5060605;28;20033;-82
2024/03/28 05:05:51;;;;;;;2.75;2.10;;;;;;;7.44;99.36;98146.69;5075417;28;20044;-83
2024/03/28 05:08:17;;;;;;;2.28;1.80;;;;;;;7.44;99.34;98148.44;5058450;28;20049;-82
2024/03/28 05:10:42;;;;;;;1.88;1.77;;;;;;;7.47;99.45;98146.44;5055470;28;20343;-82
2024/03/28 05:13:08;;;;;;;2.03;1.83;;;;;;;7.53;99.22;98146.94;5073025;28;20036;-82
2024/03/28 05:15:33;;;;;;;1.90;1.80;;;;;;;7.47;99.10;98149.03;5057997;28;20248;-82
2024/03/28 05:17:59;;;;;;;2.35;1.70;;;;;;;7.46;99.41;98168.22;5063197;28;20388;-82
2024/03/28 05:20:24;;;;;;;1.85;1.65;;;;;;;7.46;99.40;98185.63;5056740;28;20036;-82
2024/03/28 05:22:49;;;;;;;1.90;1.80;;;;;;;7.45;99.64;98187.38;5068836;28;20032;-82
2024/03/28 05:25:15;;;;;;;1.85;1.75;;;;;;;7.42;99.88;98187.63;5071691;28;20032;-82
2024/03/28 05:27:40;;;;;;;1.88;1.60;;;;;;;7.44;99.92;98183.13;5069968;28;20041;-83
2024/03/28 05:30:07;;;;;;;1.98;1.80;;;;;;;7.38;99.89;98173.13;5056382;28;20028;-82
2024/03/28 05:32:32;;;;;;;1.45;1.35;;;;;;;7.42;99.98;98173.75;5065117;28;20307;-83
2024/03/28 05:34:57;;;;;;;1.70;1.60;;;;;;;7.44;99.52;98177.06;5076295;28;20071;-82
2024/03/28 05:37:23;;;;;;;1.63;1.52;;;;;;;7.44;99.81;98171.88;5074730;28;20037;-82
2024/03/28 05:39:48;;;;;;;1.60;1.50;;;;;;;7.44;100.00;98174.47;5053961;28;20028;-82
2024/03/28 05:42:14;;;;;;;1.80;1.70;;;;;;;7.41;100.00;98188.53;5062842;28;20056;-82
2024/03/28 05:44:40;;;;;;;10.32;1.80;;;;;;;7.38;99.71;98182.72;5075791;28;20058;-83
2024/03/28 05:47:05;;;;;;;5.03;1.80;;;;;;;7.41;99.91;98187.72;5065038;28;20349;-82
2024/03/28 05:49:30;;;;;;;1.60;1.50;;;;;;;7.41;99.99;98188.53;5065978;28;20086;-83
2024/03/28 05:51:56;;;;;;;1.67;1.58;;;;;;;7.44;99.91;98185.72;5065496;28;20032;-83
2024/03/28 05:54:22;;;;;;;1.58;1.48;;;;;;;7.47;99.32;98180.28;5055147;28;20035;-82
2024/03/28 05:56:48;;;;;;;1.63;1.50;;;;;;;7.49;99.29;98183.66;5062826;28;20032;-83
2024/03/28 05:59:13;;;;;;;2.75;1.70;;;;;;;7.54;99.24;98182.47;5066843;28;20272;-82
2024/03/28 06:01:38;;;;;;;1.98;1.60;;;;;;;7.57;98.97;98187.47;5075579;28;20103;-83
2024/03/28 06:04:04;;;;;;;1.77;1.67;;;;;;;7.59;98.79;98183.81;5064816;28;20084;-82
2024/03/28 06:06:29;;;;;;;3.15;1.40;;;;;;;7.62;98.86;98193.19;5056882;28;20159;-83
2024/03/28 06:08:55;;;;;;;2.65;1.63;;;;;;;7.62;98.80;98178.41;5059418;28;20044;-83
2024/03/28 06:11:20;;;;;;;1.50;1.40;;;;;;;7.62;98.55;98182.75;5078143;28;20047;-83
2024/03/28 06:13:45;;;;;;;3.45;1.92;;;;;;;7.63;98.72;98182.66;5079205;28;20036;-83
2024/03/28 06:16:11;;;;;;;1.80;1.70;;;;;;;7.64;98.68;98170.44;5076719;28;20039;-82
2024/03/28 06:18:36;;;;;;;1.85;1.75;;;;;;;7.62;98.55;98174.94;5046877;28;20099;-82
2024/03/28 06:21:03;;;;;;;1.70;1.60;;;;;;;7.63;98.67;98169.63;5065047;28;20603;-83
2024/03/28 06:23:29;;;;;;;2.05;1.80;;;;;;;7.65;98.57;98177.34;5072881;28;20051;-83
2024/03/28 06:25:55;;;;;;;1.67;1.58;;;;;;;7.68;98.26;98171.91;5079100;28;20025;-83
2024/03/28 06:28:21;;;;;;;2.75;2.10;;;;;;;7.69;98.24;98170.97;5067018;28;20044;-83
2024/03/28 06:30:53;;;;;;;1.60;1.48;;;;;;;7.71;98.10;98170.84;5059831;28;20036;-83
2024/03/28 06:33:25;;;;;;;1.70;1.60;;;;;;;7.71;98.16;98165.66;5059413;28;20036;-83
2024/03/28 06:35:50;;;;;;;4.22;1.63;;;;;;;7.69;97.89;98174.41;5063953;28;20232;-83
2024/03/28 06:38:17;;;;;;;1.75;1.65;;;;;;;7.72;98.12;98175.13;5061050;28;20027;-84
2024/03/28 06:40:43;;;;;;;1.80;1.70;;;;;;;7.72;98.29;98178.56;5079474;28;20036;-83
2024/03/28 06:43:08;;;;;;;2.83;1.67;;;;;;;7.69;98.27;98168.34;5065104;28;20037;-82
2024/03/28 06:45:33;;;;;;;1.85;1.52;;;;;;;7.68;98.00;98175.34;5065358;28;20029;-83
2024/03/28 06:47:59;;;;;;;1.80;1.70;;;;;;;7.71;98.00;98176.88;5066149;28;20059;-82
2024/03/28 06:50:24;;;;;;;1.85;1.58;;;;;;;7.74;98.34;98171.47;5076618;28;20041;-83
2024/03/28 06:52:51;;;;;;;2.33;1.60;;;;;;;7.72;98.37;98170.75;5066167;28;20032;-83
2024/03/28 06:55:17;;;;;;;1.73;1.63;;;;;;;7.74;98.44;98176.69;5070918;28;20063;-83
2024/03/28 06:57:42;;;;;;;1.40;1.38;;;;;;;7.76;98.87;98185.22;5062355;28;20033;-83
2024/03/28 07:00:09;;;;;;;1.77;1.67;;;;;;;7.78;98.92;98174.69;5061751;28;20032;-83
2024/03/28 07:02:34;;;;;;;4.30;1.70;;;;;;;7.78;98.98;98178.13;5062939;28;20292;-83
2024/03/28 07:05:00;;;;;;;1.70;1.60;;;;;;;7.78;98.73;98187.72;5069642;28;20029;-83
2024/03/28 07:07:25;;;;;;;1.65;1.55;;;;;;;7.77;98.92;98186.88;5063202;28;20335;-83
2024/03/28 07:09:50;;;;;;;1.70;1.60;;;;;;;7.80;98.97;98191.88;5068852;28;20374;-84
2024/03/28 07:12:16;;;;;;;2.05;1.95;;;;;;;7.77;99.25;98199.09;5065646;28;20589;-83
2024/03/28 07:14:41;;;;;;;1.52;1.42;;;;;;;7.60;99.92;98195.06;5062946;28;20056;-83
2024/03/28 07:17:06;;;;;;;3.00;1.00;;;;;;;7.62;100.00;98209.66;5044412;28;20032;-82
2024/03/28 07:19:32;;;;;;;1.50;1.40;;;;;;;7.54;100.00;98205.91;5063494;28;20032;-82
2024/03/28 07:21:57;;;;;;;1.40;1.30;;;;;;;7.54;100.00;98211.97;5062943;28;20051;-83
2024/03/28 07:24:22;;;;;;;0.75;0.73;;;;;;;7.50;100.00;98213.13;5043059;28;20136;-83
2024/03/28 07:26:48;;;;;;;1.23;1.20;;;;;;;7.45;100.00;98216.03;5069898;28;20037;-83
2024/03/28 07:29:13;;;;;;;1.02;0.80;;;;;;;7.45;100.00;98220.41;5063150;28;20036;-83
2024/03/28 07:31:38;;;;;;;0.70;0.70;;;;;;;7.31;100.00;98223.97;5063370;28;20056;-83
2024/03/28 07:34:04;;;;;;;0.55;0.55;;;;;;;7.29;100.00;98225.84;5069812;28;20225;-83
2024/03/28 07:36:30;;;;;;;0.95;0.70;;;;;;;7.33;100.00;98208.22;5066973;28;20032;-83
2024/03/28 07:38:56;;;;;;;0.57;0.57;;;;;;;7.30;100.00;98207.50;5058391;28;20224;-83
2024/03/28 07:41:21;;;;;;;0.50;0.50;;;;;;;7.26;100.00;98202.66;5058466;28;20036;-83
2024/03/28 07:43:47;;;;;;;0.50;0.50;;;;;;;7.25;100.00;98199.19;5072359;28;20248;-83
2024/03/28 07:46:12;;;;;;;0.90;0.80;;;;;;;7.23;100.00;98203.66;5068987;28;20040;-83
2024/03/28 07:48:37;;;;;;;0.70;0.70;;;;;;;7.17;100.00;98214.50;5052404;28;20062;-84
2024/03/28 07:51:04;;;;;;;1.20;0.40;;;;;;;7.25;100.00;98211.38;5068330;28;20032;-83
2024/03/28 07:53:31;;;;;;;0.60;0.60;;;;;;;7.31;100.00;98221.34;5061019;28;20267;-83
2024/03/28 07:55:57;;;;;;;0.60;0.60;;;;;;;7.31;100.00;98221.34;5067593;28;20036;-83
2024/03/28 07:58:23;;;;;;;0.77;0.60;;;;;;;7.35;100.00;98221.97;5062940;28;20333;-83
2024/03/28 08:00:49;;;;;;;1.77;0.70;;;;;;;7.33;100.00;98226.47;5059839;28;20065;-83
2024/03/28 08:03:16;;;;;;;1.60;0.98;;;;;;;7.23;100.00;98224.50;5060521;28;20218;-83
2024/03/28 08:05:49;;;;;;;1.42;0.70;;;;;;;7.19;100.00;98232.63;5062071;28;20032;-83
2024/03/28 08:08:17;;;;;;;2.40;0.80;;;;;;;7.21;100.00;98238.56;5066064;28;20051;-83
2024/03/28 08:10:43;;;;;;;1.35;0.68;;;;;;;7.21;100.00;98239.38;5059241;28;20060;-83
2024/03/28 08:13:09;;;;;;;2.65;0.70;;;;;;;7.24;100.00;98236.59;5070582;28;20355;-83
2024/03/28 08:15:35;;;;;;;1.45;0.75;;;;;;;7.26;100.00;98244.28;5060065;28;20036;-83
2024/03/28 08:18:00;;;;;;;0.70;0.70;;;;;;;7.26;100.00;98239.91;5063679;28;20047;-83
2024/03/28 08:20:28;;;;;;;0.80;0.80;;;;;;;7.27;100.00;98238.13;5066769;28;20028;-83
2024/03/28 08:22:54;;;;;;;1.65;1.13;;;;;;;7.28;100.00;98240.63;5057710;28;20044;-83
2024/03/28 08:25:20;;;;;;;0.90;0.90;;;;;;;7.32;100.00;98241.25;5056761;28;20037;-83
2024/03/28 08:27:45;;;;;;;0.88;0.80;;;;;;;7.36;100.00;98237.50;5041415;28;20032;-83
2024/03/28 08:30:11;;;;;;;2.30;1.00;;;;;;;7.40;100.00;98235.50;5065998;28;20493;-83
2024/03/28 08:32:37;;;;;;;2.30;0.98;;;;;;;7.41;100.00;98245.00;5060416;28;20040;-82
2024/03/28 08:35:02;;;;;;;1.55;0.93;;;;;;;7.43;100.00;98246.56;5036891;28;20036;-83
2024/03/28 08:37:27;;;;;;;1.02;0.80;;;;;;;7.44;100.00;98250.84;5058970;28;20372;-82
2024/03/28 08:39:53;;;;;;;2.25;0.70;;;;;;;7.46;100.00;98258.56;5045160;28;20024;-82
2024/03/28 08:42:18;;;;;;;0.75;0.70;;;;;;;7.46;100.00;98256.78;5063594;28;20043;-83
2024/03/28 08:44:45;;;;;;;1.45;0.73;;;;;;;7.48;100.00;98261.88;5045454;28;20078;-83
2024/03/28 08:47:11;;;;;;;0.98;0.80;;;;;;;7.53;100.00;98266.75;5062665;28;20040;-83
2024/03/28 08:49:38;;;;;;;1.15;0.95;;;;;;;7.53;100.00;98261.53;5062601;28;20096;-83
2024/03/28 08:52:04;;;;;;;1.17;1.08;;;;;;;7.54;100.00;98258.00;5062007;28;20393;-83
2024/03/28 08:54:30;;;;;;;1.33;1.23;;;;;;;7.58;100.00;98259.47;5060359;28;20069;-83
2024/03/28 08:56:55;;;;;;;0.82;0.82;;;;;;;7.59;100.00;98256.75;5062875;28;20339;-83
2024/03/28 08:59:21;;;;;;;1.05;1.05;;;;;;;7.60;100.00;98260.19;5061877;28;20082;-83
2024/03/28 09:01:46;;;;;;;1.80;1.00;;;;;;;7.63;100.00;98265.19;5061114;28;20024;-83
2024/03/28 09:04:17;;;;;;;1.00;1.00;;;;;;;7.62;100.00;98261.75;5064829;28;20029;-83
2024/03/28 09:06:46;;;;;;;1.10;1.10;;;;;;;7.63;100.00;98266.00;5063165;28;20344;-83
2024/03/28 09:09:11;;;;;;;1.55;1.40;;;;;;;7.64;100.00;98272.03;5046862;28;20044;-83
2024/03/28 09:11:43;;;;;;;1.55;1.45;;;;;;;7.63;100.00;98268.63;5062582;28;20103;-83
2024/03/28 09:14:08;;;;;;;1.35;1.25;;;;;;;7.64;100.00;98275.50;5066773;28;20036;-83
2024/03/28 09:16:37;;;;;;;1.77;1.60;;;;;;;7.65;100.00;98281.53;5065631;28;20104;-83
2024/03/28 09:19:02;;;;;;;1.67;1.58;;;;;;;7.67;100.00;98290.06;5064877;28;20170;-83
2024/03/28 09:21:28;;;;;;;1.70;1.60;;;;;;;7.68;100.00;98295.19;5046652;28;20043;-83
2024/03/28 09:23:54;;;;;;;2.10;2.00;;;;;;;7.72;100.00;98303.63;5062245;28;20070;-84
2024/03/28 09:26:20;;;;;;;1.77;1.35;;;;;;;7.74;100.00;98306.13;5062854;28;20024;-83
2024/03/28 09:28:46;;;;;;;2.65;1.90;;;;;;;7.66;100.00;98309.25;5065301;28;20343;-83
2024/03/28 09:31:11;;;;;;;1.75;1.65;;;;;;;7.66;100.00;98315.31;5047706;28;20043;-83
2024/03/28 09:33:37;;;;;;;2.05;1.90;;;;;;;7.67;100.00;98321.34;5060413;28;20033;-83
2024/03/28 09:36:03;;;;;;;3.55;2.20;;;;;;;7.62;100.00;98318.22;5064369;28;20095;-83
2024/03/28 09:38:28;;;;;;;2.78;2.58;;;;;;;7.61;100.00;98332.19;5063062;28;20033;-83
2024/03/28 09:40:54;;;;;;;2.25;2.15;;;;;;;7.65;100.00;98334.47;5062410;28;20044;-83
2024/03/28 09:43:20;;;;;;;3.05;2.30;;;;;;;7.74;100.00;98334.78;5064761;28;20028;-84
2024/03/28 09:45:45;;;;;;;3.38;2.30;;;;;;;7.76;100.00;98338.94;5061429;28;20039;-84
2024/03/28 09:48:21;;;;;;;2.88;2.35;;;;;;;7.82;100.00;98342.88;5063924;28;20787;-84
2024/03/28 09:50:48;;;;;;;4.82;3.30;;;;;;;7.85;100.00;98345.28;5068874;28;20047;-84
2024/03/28 09:53:15;;;;;;;6.45;2.85;;;;;;;7.86;100.00;98350.41;5066453;28;20032;-84
2024/03/28 09:55:41;;;;;;;5.90;3.22;;;;;;;7.92;100.00;98345.72;5067798;28;20099;-83
2024/03/28 09:58:09;;;;;;;7.40;3.30;;;;;;;7.83;100.00;98355.81;5067544;28;20378;-84
2024/03/28 10:00:36;;;;;;;4.95;2.83;;;;;;;7.85;100.00;98358.31;5066369;28;20028;-84
2024/03/28 10:03:11;;;;;;;7.97;1.70;;;;;;;7.77;100.00;98365.84;5065627;28;20161;-84
2024/03/28 10:05:37;;;;;;;3.63;1.45;;;;;;;7.73;100.00;98369.56;5066672;28;20044;-84
2024/03/28 10:08:04;;;;;;;1.83;1.23;;;;;;;7.66;100.00;98374.38;5068070;28;20048;-84
2024/03/28 10:10:31;;;;;;;6.47;1.95;;;;;;;7.67;100.00;98383.84;5065964;28;20032;-83
2024/03/28 10:12:58;;;;;;;7.93;2.05;;;;;;;7.67;100.00;98384.69;5066584;28;20074;-84
2024/03/28 10:15:24;;;;;;;3.58;2.13;;;;;;;7.80;100.00;98384.69;5068416;28;20032;-84
2024/03/28 10:18:00;;;;;;;3.63;2.15;;;;;;;7.93;100.00;98400.34;5069778;28;20020;-84
2024/03/28 10:20:25;;;;;;;7.63;2.30;;;;;;;7.92;100.00;98398.66;5067285;28;20066;-83
2024/03/28 10:22:53;;;;;;;10.63;2.58;;;;;;;8.01;100.00;98400.63;5067192;28;20261;-84
2024/03/28 10:25:19;;;;;;;9.88;2.47;;;;;;;8.13;100.00;98400.72;5065145;28;20032;-84
2024/03/28 10:27:45;;;;;;;9.23;2.47;;;;;;;8.21;100.00;98414.88;5068187;28;20070;-84
2024/03/28 10:30:19;;;;;;;8.32;2.65;;;;;;;8.21;100.00;98417.50;5062288;28;20045;-83
2024/03/28 10:32:45;;;;;;;11.20;1.95;;;;;;;8.24;100.00;98422.50;5066960;28;20243;-83
2024/03/28 10:35:11;;;;;;;9.48;1.95;;;;;;;8.27;100.00;98427.50;5064789;28;20024;-85
2024/03/28 10:37:36;;;;;;;11.90;2.67;;;;;;;8.32;100.00;98435.00;5050770;28;20043;-83
2024/03/28 10:40:02;;;;;;;8.15;1.98;;;;;;;8.36;100.00;98452.09;5066960;28;20051;-84
2024/03/28 10:42:29;;;;;;;8.93;1.45;;;;;;;8.36;100.00;98446.06;5051788;28;20035;-82
2024/03/28 10:44:59;;;;;;;9.00;2.03;;;;;;;8.39;100.00;98440.63;5069573;28;20067;-84
2024/03/28 10:47:29;;;;;;;6.88;1.52;;;;;;;8.42;100.00;98453.47;5066774;28;20350;-84
2024/03/28 10:50:01;;;;;;;5.40;1.13;;;;;;;8.47;100.00;98461.81;5062941;28;20090;-83
2024/03/28 10:52:41;;;;;;;6.43;1.20;;;;;;;8.46;100.00;98457.56;5061133;28;20354;-84
2024/03/28 10:55:11;;;;;;;4.82;1.02;;;;;;;8.48;100.00;98462.63;5064235;28;20035;-83
2024/03/28 10:57:40;;;;;;;3.17;0.90;;;;;;;8.50;100.00;98472.03;5061948;28;20063;-83
2024/03/28 11:00:09;;;;;;;8.07;1.00;;;;;;;8.55;100.00;98475.16;5066680;28;20207;-83
2024/03/28 11:02:37;;;;;;;7.72;1.13;;;;;;;8.62;100.00;98480.78;5063511;28;20033;-84
2024/03/28 11:05:04;;;;;;;5.72;1.40;;;;;;;8.61;100.00;98485.16;5061295;28;20090;-84
2024/03/28 11:07:29;;;;;;;7.65;1.20;;;;;;;8.71;100.00;98484.50;5061949;28;20032;-84
2024/03/28 11:09:55;;;;;;;4.22;1.30;;;;;;;8.76;100.00;98487.63;5062338;28;20071;-84
2024/03/28 11:12:21;;;;;;;4.93;1.05;;;;;;;8.80;100.00;98495.16;5066563;28;20055;-84
2024/03/28 11:14:58;;;;;;;3.40;1.00;;;;;;;8.85;100.00;98497.44;5063124;28;20048;-84
2024/03/28 11:17:23;;;;;;;6.75;1.00;;;;;;;8.77;100.00;98499.75;5061282;28;20020;-84
2024/03/28 11:20:08;;;;;;;3.60;0.80;;;;;;;8.74;99.26;98508.63;5066674;28;20138;-83
2024/03/28 11:22:34;;;;;;;4.53;0.90;;;;;;;8.76;96.73;98505.91;5062872;28;20216;-84
2024/03/28 11:24:59;;;;;;;2.13;1.00;;;;;;;8.83;100.00;98510.59;5062123;28;20033;-84
2024/03/28 11:27:25;;;;;;;9.65;1.00;;;;;;;8.88;100.00;98510.28;5049244;28;20310;-84
2024/03/28 11:30:07;;;;;;;4.13;1.17;;;;;;;8.92;99.99;98522.16;5062813;28;20043;-83
2024/03/28 11:32:33;;;;;;;10.57;0.95;;;;;;;8.93;97.66;98523.84;5060152;28;20028;-84
2024/03/28 11:35:10;;;;;;;8.35;1.08;;;;;;;8.92;94.81;98529.16;5062939;28;20037;-84
2024/03/28 11:37:35;;;;;;;1.27;0.70;;;;;;;8.94;95.41;98538.53;5066744;28;20442;-84
2024/03/28 11:40:03;;;;;;;1.95;0.75;;;;;;;9.03;96.28;98543.09;5066292;28;20032;-84
2024/03/28 11:42:29;;;;;;;2.55;1.10;;;;;;;9.08;96.87;98547.16;5062674;28;20032;-84